Saturday, November 18, 2017, 7:08 AM EST
Back to Local

KORH, Worcester Regional Airport

Location: Worcester, MA, United States Lat: 42.267
Local Time: 7:08 AM EST (12:08 GMT) Lon: -71.867
Time Zone: US/Eastern Elev: 1010 ft

Show me the last for .
Show Decoded

2017-11-18 06:54 METAR KORH 181154Z 28007KT 10SM CLR M03/M11 A2993 RMK AO2 SLP149 T10331111 11011
                 21039 55001 =
2017-11-18 05:54 METAR KORH 181054Z AUTO 26010KT 10SM CLR M03/M11 A2993 RMK AO2 SLP148 T10331106
                 =
2017-11-18 04:54 METAR KORH 180954Z AUTO 26013KT 10SM CLR M03/M09 A2994 RMK AO2 SLP150 T10331094
                 =
2017-11-18 03:54 METAR KORH 180854Z AUTO 25012KT 10SM CLR M03/M09 A2994 RMK AO2 SLP150 T10331094
                 55005 =
2017-11-18 02:54 METAR KORH 180754Z AUTO 25005KT 10SM CLR M03/M10 A2993 RMK AO2 SLP146 T10331100
                 =
2017-11-18 01:54 METAR KORH 180654Z AUTO 26007KT 10SM BKN110 M02/M11 A2995 RMK AO2 SLP154
                 T10221111 =
2017-11-18 00:54 METAR KORH 180554Z AUTO 28008KT 10SM OVC110 M02/M11 A2995 RMK AO2 SLP154
                 T10171106 10000 21017 56002 =
2017-11-17 23:54 METAR KORH 180454Z AUTO 31007KT 10SM CLR M02/M11 A2995 RMK AO2 SLP154 T10171106
                 400441017 =
2017-11-17 22:54 METAR KORH 180354Z AUTO 31007KT 10SM CLR M01/M10 A2994 RMK AO2 SLP150 T10111100
                 =
2017-11-17 21:54 METAR KORH 180254Z AUTO 28006KT 10SM CLR M01/M09 A2996 RMK AO2 SLP157 T10111094
                 50002 =
2017-11-17 20:54 METAR KORH 180154Z AUTO 28005KT 10SM CLR M01/M10 A2996 RMK AO2 SLP158 T10061100
                 =
2017-11-17 19:54 METAR KORH 180054Z VRB05KT 10SM CLR M01/M09 A2997 RMK AO2 SLP159 T10061094 =
2017-11-17 18:54 METAR KORH 172354Z VRB04KT 10SM CLR 00/M09 A2995 RMK AO2 SLP155 T00001089 10044
                 20000 51014 =
2017-11-17 17:54 METAR KORH 172254Z 27009KT 10SM CLR 01/M09 A2995 RMK AO2 SLP153 T00111089 =
2017-11-17 16:54 METAR KORH 172154Z 27007KT 10SM CLR 02/M11 A2994 RMK AO2 SLP149 T00171106 =
2017-11-17 15:54 METAR KORH 172054Z 29012G21KT 10SM CLR 03/M09 A2991 RMK AO2 SLP138 T00281094
                 51013 =
2017-11-17 14:54 METAR KORH 171954Z 28011KT 10SM CLR 04/M08 A2990 RMK AO2 PK WND 29027/1903
                 SLP135 T00391083 =
2017-11-17 13:54 METAR KORH 171854Z 30019G26KT 10SM CLR 04/M09 A2989 RMK AO2 PK WND 32027/1842
                 SLP131 T00441089 =
2017-11-17 12:54 METAR KORH 171754Z 30016G27KT 10SM CLR 04/M07 A2987 RMK AO2 PK WND 28030/1741
                 SLP125 T00391067 10039 20006 58004 =
2017-11-17 11:54 METAR KORH 171654Z 31013G28KT 10SM CLR 03/M07 A2987 RMK AO2 PK WND 32033/1555
                 SLP125 T00331067 =
2017-11-17 10:54 METAR KORH 171554Z 31024G33KT 10SM CLR 02/M07 A2989 RMK AO2 PK WND 30034/1512
                 SLP131 T00221067 =
2017-11-17 09:54 METAR KORH 171454Z 31019G31KT 10SM FEW029 02/M06 A2988 RMK AO2 PK WND 31036/1428
                 SLP129 T00171061 53021 =
2017-11-17 08:54 METAR KORH 171354Z 30023G37KT 10SM CLR 01/M06 A2987 RMK AO2 PK WND 30037/1334
                 SLP125 T00111061 =
2017-11-17 07:54 METAR KORH 171254Z 29024G39KT 10SM CLR 01/M06 A2984 RMK AO2 PK WND 29041/1241
                 SLP112 T00111056 =

Support USWX by starting your Amazon purchase here.